Time;durP1;ratioP1;P1;durP2;ratioP2;P2;SDS_P1;SDS_P2;PMS_P1;PMS_P2;Temp;Humidity;BMP_temperature;BMP_pressure;BME280_temperature;BME280_humidity;BME280_pressure;Samples;Min_cycle;Max_cycle;Signal;HPM_P1;HPM_P2
2022/01/09 00:00:09;;;;;;;7.85;6.38;;;;;;;;;;5117378;27;20043;-81
2022/01/09 00:02:48;;;;;;;8.52;6.35;;;;;;;;;;5134580;27;20443;-81
2022/01/09 00:05:14;;;;;;;10.13;6.65;;;;;;;;;;5135448;27;20042;-81
2022/01/09 00:07:40;;;;;;;8.95;6.50;;;;;;;;;;5135786;27;20093;-81
2022/01/09 00:10:08;;;;;;;9.43;6.80;;;;;;;;;;5135200;27;20541;-80
2022/01/09 00:12:34;;;;;;;8.23;6.57;;;;;;;;;;5134906;27;20039;-80
2022/01/09 00:15:00;;;;;;;9.43;7.00;;;;;;;;;;5135310;27;20089;-80
2022/01/09 00:17:26;;;;;;;9.32;7.13;;;;;;;;;;5135375;27;20088;-81
2022/01/09 00:19:52;;;;;;;8.45;6.50;;;;;;;;;;5135635;27;20042;-81
2022/01/09 00:22:28;;;;;;;9.52;7.18;;;;;;;;;;5134111;27;20039;-80
2022/01/09 00:24:55;;;;;;;9.70;7.13;;;;;;;;;;5133971;27;20043;-82
2022/01/09 00:27:21;;;;;;;8.70;6.47;;;;;;;;;;5134953;27;20047;-80
2022/01/09 00:29:47;;;;;;;9.38;7.07;;;;;;;;;;5134866;27;20089;-81
2022/01/09 00:32:13;;;;;;;8.52;7.15;;;;;;;;;;5133696;27;20054;-80
2022/01/09 00:34:39;;;;;;;8.77;7.15;;;;;;;;;;5133683;27;20384;-81
2022/01/09 00:37:05;;;;;;;9.25;7.50;;;;;;;;;;5134943;27;20176;-82
2022/01/09 00:39:31;;;;;;;8.57;7.07;;;;;;;;;;5134816;27;20122;-81
2022/01/09 00:41:57;;;;;;;9.10;7.20;;;;;;;;;;5134810;27;20054;-83
2022/01/09 00:44:23;;;;;;;10.10;6.72;;;;;;;;;;5134439;27;20043;-83
2022/01/09 00:46:49;;;;;;;9.77;7.35;;;;;;;;;;5133497;27;20481;-82
2022/01/09 00:49:15;;;;;;;9.60;7.30;;;;;;;;;;5134510;27;20118;-82
2022/01/09 00:51:41;;;;;;;10.55;6.68;;;;;;;;;;5134571;27;20043;-81
2022/01/09 00:54:07;;;;;;;10.07;7.32;;;;;;;;;;5134452;27;20043;-81
2022/01/09 00:56:34;;;;;;;8.43;6.78;;;;;;;;;;5134396;27;20039;-82
2022/01/09 00:59:00;;;;;;;9.13;7.05;;;;;;;;;;5134233;27;20091;-81
2022/01/09 01:01:26;;;;;;;8.65;6.97;;;;;;;;;;5133325;27;20472;-81
2022/01/09 01:03:52;;;;;;;8.52;6.82;;;;;;;;;;5134465;27;20061;-83
2022/01/09 01:06:18;;;;;;;10.10;7.88;;;;;;;;;;5133140;27;20121;-82
2022/01/09 01:08:44;;;;;;;9.75;7.38;;;;;;;;;;5133083;27;20050;-81
2022/01/09 01:11:11;;;;;;;9.23;7.07;;;;;;;;;;5134222;27;20464;-81
2022/01/09 01:13:37;;;;;;;8.20;6.65;;;;;;;;;;5132677;27;20652;-82
2022/01/09 01:16:03;;;;;;;9.40;6.28;;;;;;;;;;5133805;27;20090;-82
2022/01/09 01:18:29;;;;;;;8.32;6.93;;;;;;;;;;5132863;27;20058;-81
2022/01/09 01:20:55;;;;;;;9.43;7.32;;;;;;;;;;5133928;27;20484;-83
2022/01/09 01:23:21;;;;;;;9.93;6.90;;;;;;;;;;5134107;27;20078;-81
2022/01/09 01:25:51;;;;;;;9.40;7.03;;;;;;;;;;5132345;27;20043;-81
2022/01/09 01:28:18;;;;;;;8.65;7.00;;;;;;;;;;5133926;27;20503;-79
2022/01/09 01:30:44;;;;;;;8.38;6.70;;;;;;;;;;5132948;27;20039;-79
2022/01/09 01:33:10;;;;;;;9.52;6.88;;;;;;;;;;5133751;27;20046;-82
2022/01/09 01:35:36;;;;;;;8.98;7.30;;;;;;;;;;5133932;27;20058;-81
2022/01/09 01:38:02;;;;;;;8.82;7.10;;;;;;;;;;5132707;27;20054;-80
2022/01/09 01:40:28;;;;;;;10.05;7.72;;;;;;;;;;5132512;27;20118;-81
2022/01/09 01:42:55;;;;;;;11.23;7.72;;;;;;;;;;5115384;28;20130;-82
2022/01/09 01:45:21;;;;;;;9.18;7.10;;;;;;;;;;5132512;27;20039;-82
2022/01/09 01:47:47;;;;;;;10.25;7.90;;;;;;;;;;5132594;27;20421;-81
2022/01/09 01:50:22;;;;;;;10.25;7.90;;;;;;;;;;5133252;27;20494;-82
2022/01/09 01:52:51;;;;;;;9.40;7.97;;;;;;;;;;5133640;27;20058;-81
2022/01/09 01:55:17;;;;;;;10.27;7.85;;;;;;;;;;5133433;27;20126;-80
2022/01/09 01:57:44;;;;;;;11.07;8.90;;;;;;;;;;5132489;28;20054;-80
2022/01/09 02:00:12;;;;;;;9.98;8.73;;;;;;;;;;5132359;28;20077;-79
2022/01/09 02:02:38;;;;;;;10.65;9.55;;;;;;;;;;5132384;28;20047;-80
2022/01/09 02:05:07;;;;;;;12.13;9.80;;;;;;;;;;5132108;28;20074;-80
2022/01/09 02:07:34;;;;;;;12.13;9.77;;;;;;;;;;5133322;28;20434;-80
2022/01/09 02:10:00;;;;;;;12.95;9.90;;;;;;;;;;5133312;28;20043;-80
2022/01/09 02:12:26;;;;;;;11.55;9.45;;;;;;;;;;5133273;28;20039;-79
2022/01/09 02:14:52;;;;;;;13.13;10.68;;;;;;;;;;5133562;27;20275;-80
2022/01/09 02:17:19;;;;;;;12.88;10.32;;;;;;;;;;5133249;28;20035;-80
2022/01/09 02:19:55;;;;;;;14.48;11.40;;;;;;;;;;5133396;28;20051;-80
2022/01/09 02:22:23;;;;;;;14.95;11.35;;;;;;;;;;5133212;28;20075;-80
2022/01/09 02:24:50;;;;;;;15.63;12.43;;;;;;;;;;5133110;27;20500;-79
2022/01/09 02:27:16;;;;;;;16.48;12.48;;;;;;;;;;5133706;27;20392;-80
2022/01/09 02:29:45;;;;;;;15.68;11.88;;;;;;;;;;5133005;28;20492;-80
2022/01/09 02:32:11;;;;;;;15.77;12.02;;;;;;;;;;5132263;28;20082;-80
2022/01/09 02:34:37;;;;;;;15.80;12.38;;;;;;;;;;5133063;28;20039;-80
2022/01/09 02:37:03;;;;;;;17.65;13.23;;;;;;;;;;5134155;27;20039;-80
2022/01/09 02:39:29;;;;;;;16.27;12.70;;;;;;;;;;5136072;27;20039;-80
2022/01/09 02:41:55;;;;;;;17.67;13.80;;;;;;;;;;5137188;27;20039;-81
2022/01/09 02:44:21;;;;;;;16.85;12.95;;;;;;;;;;5136774;27;20522;-80
2022/01/09 02:47:03;;;;;;;16.70;13.35;;;;;;;;;;5137021;27;20046;-80
2022/01/09 02:49:31;;;;;;;;;;;;;;;;;;5136089;27;20043;-82
2022/01/09 02:51:58;;;;;;;16.90;14.10;;;;;;;;;;5136916;27;19927;-81
2022/01/09 02:57:09;;;;;;;15.50;13.38;;;;;;;;;;5135584;27;20478;-82
2022/01/09 02:59:35;;;;;;;18.70;15.30;;;;;;;;;;5136576;27;20434;-82
2022/01/09 03:02:01;;;;;;;20.88;16.52;;;;;;;;;;5136373;27;20045;-81
2022/01/09 03:04:27;;;;;;;20.05;16.65;;;;;;;;;;5136825;27;20101;-81
2022/01/09 03:06:53;;;;;;;21.95;18.45;;;;;;;;;;5136696;27;20125;-81
2022/01/09 03:09:19;;;;;;;24.02;19.25;;;;;;;;;;5135551;27;20086;-81
2022/01/09 03:11:47;;;;;;;27.35;20.73;;;;;;;;;;5136706;27;20053;-80
2022/01/09 03:14:13;;;;;;;25.08;19.98;;;;;;;;;;5136351;27;20054;-80
2022/01/09 03:16:39;;;;;;;24.02;19.38;;;;;;;;;;5135057;27;20135;-80
2022/01/09 03:19:05;;;;;;;24.27;18.63;;;;;;;;;;5136323;27;20047;-80
2022/01/09 03:21:32;;;;;;;24.65;18.83;;;;;;;;;;5136421;27;20122;-80
2022/01/09 03:23:58;;;;;;;23.48;16.65;;;;;;;;;;5136069;27;20042;-80
2022/01/09 03:26:24;;;;;;;20.08;14.88;;;;;;;;;;5135046;27;20043;-80
2022/01/09 03:28:50;;;;;;;20.85;14.95;;;;;;;;;;5136154;27;20464;-80
2022/01/09 03:31:16;;;;;;;19.67;15.65;;;;;;;;;;5134905;27;20122;-80
2022/01/09 03:33:42;;;;;;;21.13;16.10;;;;;;;;;;5136123;27;20745;-80
2022/01/09 03:36:08;;;;;;;23.00;16.17;;;;;;;;;;5135006;27;20097;-80
2022/01/09 03:38:34;;;;;;;24.08;17.10;;;;;;;;;;5135978;27;20043;-80
2022/01/09 03:41:00;;;;;;;23.38;15.68;;;;;;;;;;5134867;27;20043;-81
2022/01/09 03:43:26;;;;;;;23.77;17.02;;;;;;;;;;5135868;27;20082;-80
2022/01/09 03:45:52;;;;;;;25.13;16.17;;;;;;;;;;5135625;27;20088;-80
2022/01/09 03:48:19;;;;;;;28.98;17.48;;;;;;;;;;5135532;27;20039;-80
2022/01/09 03:50:51;;;;;;;21.60;15.07;;;;;;;;;;5134945;27;20050;-81
2022/01/09 03:53:18;;;;;;;21.15;14.95;;;;;;;;;;5135795;27;20066;-81
2022/01/09 03:55:44;;;;;;;24.90;14.65;;;;;;;;;;5134519;27;20079;-82
2022/01/09 03:58:10;;;;;;;26.33;15.13;;;;;;;;;;5134492;27;20050;-81
2022/01/09 04:00:36;;;;;;;28.42;14.55;;;;;;;;;;5134830;27;20043;-81
2022/01/09 04:03:02;;;;;;;27.48;13.93;;;;;;;;;;5135458;27;20054;-81
2022/01/09 04:05:28;;;;;;;29.48;13.45;;;;;;;;;;5117359;27;20116;-81
2022/01/09 04:07:54;;;;;;;29.42;11.95;;;;;;;;;;5135176;27;20076;-81
2022/01/09 04:10:28;;;;;;;26.15;10.13;;;;;;;;;;5117669;27;20079;-82
2022/01/09 04:12:59;;;;;;;29.88;9.38;;;;;;;;;;5135096;27;20054;-82
2022/01/09 04:15:25;;;;;;;;;;;;;;;;;;5134732;27;20053;-81
2022/01/09 04:17:55;;;;;;;22.30;6.80;;;;;;;;;;5133946;27;19919;-82
2022/01/09 04:20:29;;;;;;;25.13;5.65;;;;;;;;;;5135193;27;20126;-81
2022/01/09 04:22:55;;;;;;;22.25;5.35;;;;;;;;;;5135311;27;20046;-80
2022/01/09 04:25:22;;;;;;;27.83;6.07;;;;;;;;;;5134855;27;20043;-80
2022/01/09 04:27:50;;;;;;;30.42;4.90;;;;;;;;;;5135103;27;20050;-80
2022/01/09 04:30:16;;;;;;;35.65;4.72;;;;;;;;;;5134825;27;20091;-80
2022/01/09 04:32:42;;;;;;;36.05;4.65;;;;;;;;;;5135027;27;20136;-81
2022/01/09 04:35:08;;;;;;;43.30;6.60;;;;;;;;;;5116537;27;20039;-82
2022/01/09 04:37:36;;;;;;;44.88;5.85;;;;;;;;;;5134586;27;20480;-82
2022/01/09 04:40:03;;;;;;;37.30;5.28;;;;;;;;;;5134799;27;20100;-82
2022/01/09 04:42:38;;;;;;;39.10;5.82;;;;;;;;;;5133893;27;20122;-82
2022/01/09 04:45:04;;;;;;;56.33;6.65;;;;;;;;;;5133413;27;20053;-81
2022/01/09 04:47:30;;;;;;;50.92;6.57;;;;;;;;;;5116506;27;20051;-81
2022/01/09 04:49:59;;;;;;;47.50;6.82;;;;;;;;;;5134693;27;20043;-81
2022/01/09 04:52:29;;;;;;;58.92;7.22;;;;;;;;;;5133465;27;20117;-81
2022/01/09 04:54:55;;;;;;;49.38;6.28;;;;;;;;;;5134485;27;20365;-82
2022/01/09 04:57:21;;;;;;;55.95;6.82;;;;;;;;;;5133242;27;20045;-81
2022/01/09 04:59:47;;;;;;;46.53;5.88;;;;;;;;;;5132601;27;20079;-82
2022/01/09 05:02:14;;;;;;;49.03;5.65;;;;;;;;;;5133325;27;20067;-81
2022/01/09 05:04:40;;;;;;;51.53;6.05;;;;;;;;;;5133185;27;20494;-82
2022/01/09 05:07:06;;;;;;;53.47;6.43;;;;;;;;;;5134299;27;20038;-81
2022/01/09 05:09:32;;;;;;;47.05;5.47;;;;;;;;;;5134159;27;20425;-81
2022/01/09 05:11:58;;;;;;;45.53;5.38;;;;;;;;;;5133333;27;20472;-81
2022/01/09 05:14:24;;;;;;;53.00;6.38;;;;;;;;;;5134032;27;20567;-82
2022/01/09 05:17:00;;;;;;;42.15;5.50;;;;;;;;;;5132865;27;20147;-82
2022/01/09 05:19:31;;;;;;;56.80;6.30;;;;;;;;;;5134025;27;20064;-81
2022/01/09 05:21:57;;;;;;;55.17;6.25;;;;;;;;;;5134155;27;20429;-82
2022/01/09 05:24:24;;;;;;;46.03;6.10;;;;;;;;;;5134255;27;20099;-82
2022/01/09 05:26:50;;;;;;;38.35;5.32;;;;;;;;;;5134065;27;20053;-83
2022/01/09 05:29:16;;;;;;;40.72;5.07;;;;;;;;;;5133049;27;20039;-82
2022/01/09 05:31:44;;;;;;;41.08;5.07;;;;;;;;;;5134082;27;20142;-82
2022/01/09 05:34:10;;;;;;;37.95;5.45;;;;;;;;;;5133801;27;20539;-82
2022/01/09 05:36:36;;;;;;;40.92;4.57;;;;;;;;;;5115712;27;20045;-82
2022/01/09 05:39:03;;;;;;;39.05;5.40;;;;;;;;;;5132793;27;20122;-81
2022/01/09 05:41:29;;;;;;;41.42;5.35;;;;;;;;;;5133704;27;20039;-81
2022/01/09 05:43:56;;;;;;;47.92;5.47;;;;;;;;;;5133676;27;20039;-81
2022/01/09 05:46:22;;;;;;;36.75;5.10;;;;;;;;;;5132664;27;20072;-83
2022/01/09 05:48:48;;;;;;;47.65;5.40;;;;;;;;;;5133469;27;20403;-81
2022/01/09 05:51:14;;;;;;;39.83;5.18;;;;;;;;;;5133850;27;20047;-81
2022/01/09 05:53:40;;;;;;;32.80;4.82;;;;;;;;;;5133519;27;20045;-81
2022/01/09 05:56:06;;;;;;;34.88;4.82;;;;;;;;;;5132529;27;20387;-82
2022/01/09 05:58:34;;;;;;;37.13;4.78;;;;;;;;;;5133732;28;20515;-82
2022/01/09 06:01:00;;;;;;;34.58;4.40;;;;;;;;;;5115961;28;20532;-82
2022/01/09 06:03:26;;;;;;;39.55;4.68;;;;;;;;;;5132221;28;20125;-81
2022/01/09 06:05:52;;;;;;;35.90;4.35;;;;;;;;;;5133642;28;20039;-82
2022/01/09 06:08:31;;;;;;;35.33;4.47;;;;;;;;;;5132583;28;20047;-81
2022/01/09 06:10:57;;;;;;;31.88;4.57;;;;;;;;;;5134408;27;20081;-81
2022/01/09 06:13:23;;;;;;;26.20;3.67;;;;;;;;;;5137431;27;20142;-81
2022/01/09 06:15:49;;;;;;;36.05;4.88;;;;;;;;;;5137388;27;20043;-81
2022/01/09 06:18:18;;;;;;;31.00;3.80;;;;;;;;;;5136694;27;20078;-81
2022/01/09 06:20:44;;;;;;;33.67;3.95;;;;;;;;;;5137295;27;20127;-81
2022/01/09 06:23:10;;;;;;;26.80;4.38;;;;;;;;;;5136540;27;20665;-81
2022/01/09 06:25:36;;;;;;;31.10;4.57;;;;;;;;;;5136339;27;20163;-81
2022/01/09 06:28:02;;;;;;;33.10;3.83;;;;;;;;;;5136235;27;20042;-82
2022/01/09 06:30:29;;;;;;;31.10;4.28;;;;;;;;;;5137179;27;20391;-82
2022/01/09 06:32:55;;;;;;;23.75;3.35;;;;;;;;;;5137423;27;20043;-81
2022/01/09 06:35:21;;;;;;;28.42;3.92;;;;;;;;;;5137251;27;20122;-81
2022/01/09 06:37:48;;;;;;;27.63;3.45;;;;;;;;;;5137262;27;20079;-81
2022/01/09 06:40:14;;;;;;;28.00;3.70;;;;;;;;;;5137381;27;20058;-82
2022/01/09 06:42:40;;;;;;;26.55;3.50;;;;;;;;;;5137053;27;20039;-81
2022/01/09 06:45:07;;;;;;;25.95;3.60;;;;;;;;;;5118504;27;20055;-82
2022/01/09 06:47:33;;;;;;;28.80;3.70;;;;;;;;;;5136792;27;20039;-82
2022/01/09 06:49:59;;;;;;;28.98;3.75;;;;;;;;;;5137136;27;20075;-81
2022/01/09 06:52:25;;;;;;;21.63;2.88;;;;;;;;;;5135965;27;20092;-82
2022/01/09 06:54:51;;;;;;;28.20;3.78;;;;;;;;;;5135926;27;20042;-81
2022/01/09 06:57:17;;;;;;;26.30;3.53;;;;;;;;;;5136824;27;20050;-82
2022/01/09 06:59:43;;;;;;;23.67;3.45;;;;;;;;;;5135530;27;20043;-82
2022/01/09 07:02:09;;;;;;;31.92;4.05;;;;;;;;;;5136969;27;20046;-81
2022/01/09 07:04:35;;;;;;;26.25;3.90;;;;;;;;;;5118511;27;20083;-82
2022/01/09 07:07:02;;;;;;;26.58;3.70;;;;;;;;;;5135752;27;20043;-82
2022/01/09 07:09:28;;;;;;;30.25;3.75;;;;;;;;;;5135647;27;20043;-82
2022/01/09 07:11:54;;;;;;;22.95;3.03;;;;;;;;;;5136419;27;20118;-82
2022/01/09 07:14:20;;;;;;;29.23;3.42;;;;;;;;;;5135171;27;20177;-81
2022/01/09 07:16:46;;;;;;;30.67;3.85;;;;;;;;;;5135598;27;20209;-82
2022/01/09 07:19:12;;;;;;;30.67;3.63;;;;;;;;;;5136546;27;20155;-82
2022/01/09 07:21:38;;;;;;;31.63;3.88;;;;;;;;;;5135547;27;20495;-81
2022/01/09 07:24:04;;;;;;;28.38;4.20;;;;;;;;;;5135544;27;20571;-81
2022/01/09 07:26:31;;;;;;;23.92;3.40;;;;;;;;;;5136110;27;20040;-81
2022/01/09 07:28:57;;;;;;;24.95;3.13;;;;;;;;;;5136443;27;20061;-82
2022/01/09 07:31:24;;;;;;;25.55;3.63;;;;;;;;;;5136217;27;20046;-82
2022/01/09 07:33:50;;;;;;;30.38;3.92;;;;;;;;;;5135000;27;20076;-82
2022/01/09 07:36:18;;;;;;;22.15;3.10;;;;;;;;;;5136214;27;20423;-81
2022/01/09 07:38:44;;;;;;;29.05;3.65;;;;;;;;;;5136034;27;20051;-82
2022/01/09 07:41:13;;;;;;;25.63;3.33;;;;;;;;;;5135921;27;20499;-82
2022/01/09 07:43:40;;;;;;;25.33;3.33;;;;;;;;;;5134805;27;20391;-82
2022/01/09 07:46:06;;;;;;;30.38;4.05;;;;;;;;;;5135911;27;20118;-83
2022/01/09 07:48:32;;;;;;;23.02;2.85;;;;;;;;;;5135607;27;20055;-81
2022/01/09 07:50:58;;;;;;;23.88;3.63;;;;;;;;;;5134453;27;20468;-82
2022/01/09 07:53:24;;;;;;;21.05;3.22;;;;;;;;;;5133856;27;20047;-81
2022/01/09 07:55:51;;;;;;;25.10;3.47;;;;;;;;;;5116258;27;20039;-82
2022/01/09 07:58:18;;;;;;;18.88;2.75;;;;;;;;;;5135922;27;20506;-82
2022/01/09 08:00:44;;;;;;;18.35;3.28;;;;;;;;;;5135407;27;20050;-82
2022/01/09 08:03:11;;;;;;;22.23;2.70;;;;;;;;;;5117307;27;20054;-81
2022/01/09 08:05:37;;;;;;;21.95;3.08;;;;;;;;;;5135225;27;20484;-82
2022/01/09 08:08:03;;;;;;;20.05;2.83;;;;;;;;;;5134460;27;20082;-81
2022/01/09 08:10:29;;;;;;;19.08;3.00;;;;;;;;;;5135313;27;20078;-81
2022/01/09 08:12:55;;;;;;;25.60;3.10;;;;;;;;;;5134945;27;20484;-81
2022/01/09 08:15:21;;;;;;;17.73;2.20;;;;;;;;;;5134175;27;20054;-81
2022/01/09 08:17:49;;;;;;;19.70;2.63;;;;;;;;;;5134203;27;20051;-81
2022/01/09 08:20:16;;;;;;;20.45;2.88;;;;;;;;;;5135347;27;20384;-81
2022/01/09 08:22:42;;;;;;;22.75;2.33;;;;;;;;;;5116781;27;20047;-81
2022/01/09 08:25:12;;;;;;;17.67;2.08;;;;;;;;;;5133810;27;20043;-81
2022/01/09 08:27:38;;;;;;;14.90;2.50;;;;;;;;;;5134245;27;20043;-82
2022/01/09 08:30:06;;;;;;;17.17;2.13;;;;;;;;;;5133552;27;20069;-81
2022/01/09 08:32:32;;;;;;;13.20;2.33;;;;;;;;;;5133965;27;20039;-81
2022/01/09 08:34:58;;;;;;;16.55;2.17;;;;;;;;;;5115681;27;20047;-81
2022/01/09 08:37:24;;;;;;;15.13;2.10;;;;;;;;;;5134521;27;20043;-81
2022/01/09 08:39:50;;;;;;;16.63;1.95;;;;;;;;;;5134841;27;20050;-81
2022/01/09 08:42:16;;;;;;;16.05;2.17;;;;;;;;;;5133676;27;20046;-81
2022/01/09 08:44:43;;;;;;;18.05;2.70;;;;;;;;;;5134653;27;20045;-81
2022/01/09 08:47:10;;;;;;;16.73;2.47;;;;;;;;;;5134882;27;20384;-81
2022/01/09 08:49:36;;;;;;;16.40;2.13;;;;;;;;;;5134577;27;20441;-81
2022/01/09 08:52:02;;;;;;;18.13;2.78;;;;;;;;;;5134468;27;20077;-81
2022/01/09 08:54:29;;;;;;;14.50;2.58;;;;;;;;;;5116111;27;20042;-81
2022/01/09 08:56:55;;;;;;;14.70;2.30;;;;;;;;;;5134576;27;20050;-80
2022/01/09 08:59:21;;;;;;;20.73;2.85;;;;;;;;;;5116244;27;20043;-81
2022/01/09 09:01:48;;;;;;;19.30;2.30;;;;;;;;;;5134427;27;20509;-82
2022/01/09 09:04:14;;;;;;;17.20;2.42;;;;;;;;;;5132980;27;20050;-81
2022/01/09 09:06:41;;;;;;;11.52;2.20;;;;;;;;;;5115922;27;20039;-81
2022/01/09 09:09:08;;;;;;;15.15;2.35;;;;;;;;;;5134152;27;20039;-81
2022/01/09 09:11:34;;;;;;;14.00;2.30;;;;;;;;;;5133137;27;20043;-82
2022/01/09 09:14:01;;;;;;;17.17;2.83;;;;;;;;;;5133702;27;20086;-81
2022/01/09 09:16:27;;;;;;;18.73;2.50;;;;;;;;;;5132770;27;20130;-81
2022/01/09 09:18:53;;;;;;;15.23;1.92;;;;;;;;;;5132800;27;20046;-81
2022/01/09 09:21:19;;;;;;;17.50;2.45;;;;;;;;;;5133857;27;20122;-81
2022/01/09 09:23:46;;;;;;;12.63;2.22;;;;;;;;;;5132617;27;20092;-82
2022/01/09 09:26:12;;;;;;;14.38;2.55;;;;;;;;;;5132692;27;20130;-83
2022/01/09 09:28:39;;;;;;;18.70;2.47;;;;;;;;;;5133908;27;20391;-82
2022/01/09 09:31:05;;;;;;;20.13;2.67;;;;;;;;;;5133695;27;20121;-82
2022/01/09 09:33:31;;;;;;;14.77;2.50;;;;;;;;;;5133648;27;20058;-80
2022/01/09 09:36:02;;;;;;;18.20;2.67;;;;;;;;;;5133766;27;20055;-81
2022/01/09 09:38:28;;;;;;;14.75;2.47;;;;;;;;;;5134015;27;20098;-81
2022/01/09 09:40:55;;;;;;;16.33;3.05;;;;;;;;;;5132655;27;20043;-81
2022/01/09 09:43:21;;;;;;;17.73;2.80;;;;;;;;;;5132609;27;20070;-82
2022/01/09 09:45:47;;;;;;;20.83;2.83;;;;;;;;;;5132367;27;20038;-82
2022/01/09 09:48:13;;;;;;;19.15;2.75;;;;;;;;;;5133362;27;20419;-81
2022/01/09 09:50:40;;;;;;;16.55;3.08;;;;;;;;;;5132375;27;20031;-82
2022/01/09 09:53:06;;;;;;;19.23;2.25;;;;;;;;;;5133613;27;20043;-81
2022/01/09 09:55:32;;;;;;;17.63;2.78;;;;;;;;;;5133821;27;20147;-81
2022/01/09 09:57:59;;;;;;;15.15;2.42;;;;;;;;;;5115512;28;20045;-80
2022/01/09 10:00:25;;;;;;;20.25;2.60;;;;;;;;;;5132551;28;20043;-81
2022/01/09 10:02:56;;;;;;;12.63;1.77;;;;;;;;;;5133359;28;20130;-82
2022/01/09 10:05:24;;;;;;;18.45;2.65;;;;;;;;;;5132059;28;20118;-81
2022/01/09 10:07:52;;;;;;;16.25;2.35;;;;;;;;;;5132041;28;20062;-82
2022/01/09 10:10:19;;;;;;;19.45;2.75;;;;;;;;;;5133423;27;20039;-82
2022/01/09 10:12:47;;;;;;;12.98;2.00;;;;;;;;;;5133223;28;20100;-81
2022/01/09 10:15:14;;;;;;;15.07;2.15;;;;;;;;;;5133113;28;20050;-82
2022/01/09 10:17:42;;;;;;;14.15;2.17;;;;;;;;;;5132247;28;20126;-80
2022/01/09 10:20:11;;;;;;;17.90;2.72;;;;;;;;;;5133149;27;20047;-80
2022/01/09 10:22:40;;;;;;;13.57;2.10;;;;;;;;;;5133167;28;20039;-81
2022/01/09 10:25:12;;;;;;;11.55;2.05;;;;;;;;;;5131849;28;20126;-80
2022/01/09 10:27:39;;;;;;;11.85;2.45;;;;;;;;;;5131795;28;20039;-81
2022/01/09 10:30:05;;;;;;;11.82;1.75;;;;;;;;;;5133147;28;20384;-81
2022/01/09 10:32:32;;;;;;;11.93;1.77;;;;;;;;;;5132150;28;20047;-81
2022/01/09 10:35:17;;;;;;;11.73;1.70;;;;;;;;;;5133223;28;20393;-81
2022/01/09 10:37:45;;;;;;;11.02;2.05;;;;;;;;;;5132955;28;20039;-81
2022/01/09 10:40:18;;;;;;;11.30;2.00;;;;;;;;;;5131943;28;20043;-82
2022/01/09 10:42:44;;;;;;;11.15;1.85;;;;;;;;;;5132004;28;20043;-82
2022/01/09 10:45:17;;;;;;;14.05;2.10;;;;;;;;;;5133050;27;20039;-82
2022/01/09 10:47:43;;;;;;;16.10;2.28;;;;;;;;;;5132039;28;20043;-82
2022/01/09 10:50:10;;;;;;;10.75;1.50;;;;;;;;;;5133069;27;20091;-82
2022/01/09 10:52:41;;;;;;;8.95;1.80;;;;;;;;;;5133082;27;20491;-82
2022/01/09 10:55:08;;;;;;;18.00;2.20;;;;;;;;;;5132841;27;20147;-82
2022/01/09 10:57:36;;;;;;;9.80;1.42;;;;;;;;;;5132241;27;20043;-81
2022/01/09 11:00:07;;;;;;;10.82;2.10;;;;;;;;;;5135636;27;20046;-82
2022/01/09 11:02:33;;;;;;;;;;;;;;;;;;5136013;27;20506;-82
2022/01/09 11:04:59;;;;;;;6.88;1.27;;;;;;;;;;5135398;27;19915;-82
2022/01/09 11:07:25;;;;;;;7.65;1.70;;;;;;;;;;5135185;27;20042;-82
2022/01/09 11:09:52;;;;;;;9.18;2.10;;;;;;;;;;5136760;27;20049;-82
2022/01/09 11:12:21;;;;;;;8.60;1.60;;;;;;;;;;5136492;27;20083;-82
2022/01/09 11:14:48;;;;;;;8.45;1.67;;;;;;;;;;5136289;27;20052;-81
2022/01/09 11:17:16;;;;;;;9.90;1.55;;;;;;;;;;5136389;27;20092;-82
2022/01/09 11:19:42;;;;;;;8.93;1.38;;;;;;;;;;5135266;27;20081;-81
2022/01/09 11:22:10;;;;;;;10.70;1.98;;;;;;;;;;5135335;27;20043;-82
2022/01/09 11:24:55;;;;;;;12.48;1.70;;;;;;;;;;5135170;27;20122;-82
2022/01/09 11:27:51;;;;;;;10.00;1.90;;;;;;;;;;5136359;27;20095;-81
2022/01/09 11:30:20;;;;;;;15.02;1.90;;;;;;;;;;5118433;27;20051;-81
2022/01/09 11:33:05;;;;;;;11.20;1.60;;;;;;;;;;5136363;27;20491;-81
2022/01/09 11:35:50;;;;;;;10.57;1.70;;;;;;;;;;5135995;27;20039;-81
2022/01/09 11:38:22;;;;;;;12.60;2.25;;;;;;;;;;5134854;27;20050;-81
2022/01/09 11:40:48;;;;;;;10.25;2.10;;;;;;;;;;5135796;27;20050;-81
2022/01/09 11:43:15;;;;;;;10.25;1.77;;;;;;;;;;5136085;27;20035;-81
2022/01/09 11:45:46;;;;;;;12.88;1.70;;;;;;;;;;5135922;27;20085;-81
2022/01/09 11:48:13;;;;;;;11.25;1.70;;;;;;;;;;5135778;27;20043;-81
2022/01/09 11:50:58;;;;;;;12.02;1.60;;;;;;;;;;5135682;27;20039;-81
2022/01/09 11:53:24;;;;;;;10.60;1.65;;;;;;;;;;5134429;27;20043;-81
2022/01/09 11:55:50;;;;;;;12.77;2.00;;;;;;;;;;5134764;27;20122;-81
2022/01/09 11:58:20;;;;;;;17.73;2.03;;;;;;;;;;5134998;27;20042;-81
2022/01/09 12:00:47;;;;;;;13.57;1.63;;;;;;;;;;5135768;27;20051;-81
2022/01/09 12:03:28;;;;;;;14.52;2.05;;;;;;;;;;5134691;27;20111;-80
2022/01/09 12:06:01;;;;;;;13.73;1.92;;;;;;;;;;5135378;27;20052;-81
2022/01/09 12:08:27;;;;;;;13.18;1.98;;;;;;;;;;5135141;27;20047;-81
2022/01/09 12:10:54;;;;;;;13.73;2.00;;;;;;;;;;5134425;27;20126;-81
2022/01/09 12:13:39;;;;;;;9.00;1.70;;;;;;;;;;5135161;27;20133;-80
2022/01/09 12:16:06;;;;;;;13.60;2.08;;;;;;;;;;5135254;27;20054;-80
2022/01/09 12:18:40;;;;;;;15.57;2.20;;;;;;;;;;5134124;27;20461;-81
2022/01/09 12:21:06;;;;;;;11.88;2.40;;;;;;;;;;5134372;27;20078;-81
2022/01/09 12:23:32;;;;;;;14.55;2.30;;;;;;;;;;5135114;27;20120;-81
2022/01/09 12:25:58;;;;;;;15.05;2.35;;;;;;;;;;5135182;27;20043;-82
2022/01/09 12:28:26;;;;;;;13.73;2.13;;;;;;;;;;5134997;27;20039;-82
2022/01/09 12:31:02;;;;;;;13.07;1.70;;;;;;;;;;5133706;27;20051;-81
2022/01/09 12:33:28;;;;;;;19.13;2.20;;;;;;;;;;5134032;27;20045;-81
2022/01/09 12:35:57;;;;;;;9.75;1.63;;;;;;;;;;5133836;27;20051;-81
2022/01/09 12:38:24;;;;;;;10.77;1.77;;;;;;;;;;5135030;27;20172;-82
2022/01/09 12:40:57;;;;;;;9.48;1.70;;;;;;;;;;5134685;27;20489;-81
2022/01/09 12:43:24;;;;;;;16.30;2.10;;;;;;;;;;5134295;27;20559;-81
2022/01/09 12:45:52;;;;;;;14.77;2.17;;;;;;;;;;5134942;27;20035;-81
2022/01/09 12:48:21;;;;;;;12.60;1.73;;;;;;;;;;5133618;27;20051;-81
2022/01/09 12:50:49;;;;;;;14.82;2.42;;;;;;;;;;5134849;27;20042;-80
2022/01/09 12:53:22;;;;;;;9.55;1.80;;;;;;;;;;5133548;27;20051;-81
2022/01/09 12:56:01;;;;;;;12.35;2.28;;;;;;;;;;5134459;27;20051;-81
2022/01/09 12:58:35;;;;;;;11.70;2.10;;;;;;;;;;5134423;27;20053;-81
2022/01/09 13:01:03;;;;;;;13.77;2.53;;;;;;;;;;5134512;27;20127;-81
2022/01/09 13:03:31;;;;;;;17.10;2.65;;;;;;;;;;5134305;27;20180;-81
2022/01/09 13:05:58;;;;;;;12.15;2.13;;;;;;;;;;5133263;27;20158;-80
2022/01/09 13:08:24;;;;;;;16.98;2.50;;;;;;;;;;5133148;27;20130;-80
2022/01/09 13:10:57;;;;;;;14.93;2.55;;;;;;;;;;5133370;27;20557;-81
2022/01/09 13:13:24;;;;;;;15.57;2.50;;;;;;;;;;5134110;27;20570;-81
2022/01/09 13:15:50;;;;;;;14.18;2.30;;;;;;;;;;5134212;27;20043;-81
2022/01/09 13:18:33;;;;;;;13.30;2.25;;;;;;;;;;5134167;27;20058;-81
2022/01/09 13:21:13;;;;;;;17.65;2.50;;;;;;;;;;5133389;27;20043;-81
2022/01/09 13:23:52;;;;;;;14.02;2.45;;;;;;;;;;5132960;27;20096;-81
2022/01/09 13:26:18;;;;;;;13.77;2.92;;;;;;;;;;5134100;27;20083;-80
2022/01/09 13:28:45;;;;;;;15.00;2.65;;;;;;;;;;5133931;27;20229;-80
2022/01/09 13:31:11;;;;;;;19.00;2.38;;;;;;;;;;5133946;27;20051;-81
2022/01/09 13:33:55;;;;;;;16.23;1.95;;;;;;;;;;5115646;27;20130;-80
2022/01/09 13:36:39;;;;;;;12.98;2.15;;;;;;;;;;5133831;27;20081;-81
2022/01/09 13:39:06;;;;;;;14.63;2.30;;;;;;;;;;5133796;27;20039;-81
2022/01/09 13:41:35;;;;;;;19.05;2.65;;;;;;;;;;5132816;27;20119;-81
2022/01/09 13:44:01;;;;;;;16.85;2.10;;;;;;;;;;5132709;27;20103;-81
2022/01/09 13:46:28;;;;;;;13.15;2.22;;;;;;;;;;5133622;27;20502;-80
2022/01/09 13:48:54;;;;;;;12.70;2.13;;;;;;;;;;5132547;27;20095;-81
2022/01/09 13:51:39;;;;;;;16.92;2.53;;;;;;;;;;5132615;27;20042;-80
2022/01/09 13:54:06;;;;;;;11.85;1.95;;;;;;;;;;5133897;27;20031;-81
2022/01/09 13:56:32;;;;;;;14.80;2.47;;;;;;;;;;5133856;27;20039;-80
2022/01/09 13:58:58;;;;;;;10.20;1.70;;;;;;;;;;5132441;27;20047;-80
2022/01/09 14:01:37;;;;;;;12.70;1.85;;;;;;;;;;5132604;28;20106;-80
2022/01/09 14:04:14;;;;;;;13.57;2.00;;;;;;;;;;5133133;28;20108;-81
2022/01/09 14:06:40;;;;;;;6.80;1.35;;;;;;;;;;5115126;28;20074;-81
2022/01/09 14:09:07;;;;;;;7.22;1.42;;;;;;;;;;5132615;28;20047;-81
2022/01/09 14:11:33;;;;;;;9.07;1.30;;;;;;;;;;5133520;27;20665;-81
2022/01/09 14:14:00;;;;;;;7.97;1.30;;;;;;;;;;5133223;28;20099;-75
2022/01/09 14:16:32;;;;;;;11.73;2.25;;;;;;;;;;5107493;28;20123;-81
2022/01/09 14:19:00;;;;;;;10.75;1.70;;;;;;;;;;5094408;28;20043;-80
2022/01/09 14:21:26;;;;;;;8.93;1.40;;;;;;;;;;5112545;28;20048;-80
2022/01/09 14:23:52;;;;;;;7.82;1.45;;;;;;;;;;5112755;28;20394;-81
2022/01/09 14:26:20;;;;;;;11.20;1.45;;;;;;;;;;5094697;28;20094;-81
2022/01/09 14:28:47;;;;;;;7.53;1.30;;;;;;;;;;5112685;28;20090;-81
2022/01/09 14:31:15;;;;;;;10.32;1.60;;;;;;;;;;5094854;28;20048;-81
2022/01/09 14:33:42;;;;;;;10.07;1.55;;;;;;;;;;5116444;28;20396;-80
2022/01/09 14:36:15;;;;;;;9.45;1.30;;;;;;;;;;5098766;28;20477;-80